Time;durP1;ratioP1;P1;durP2;ratioP2;P2;SDS_P1;SDS_P2;PMS_P1;PMS_P2;Temp;Humidity;BMP_temperature;BMP_pressure;BME280_temperature;BME280_humidity;BME280_pressure;Samples;Min_cycle;Max_cycle;Signal;HPM_P1;HPM_P2
2023/06/13 00:02:10;;;;;;;7.50;4.95;;;;;;;21.03;100.00;101181.97;5267689;28;20028;-67
2023/06/13 00:04:43;;;;;;;5.72;3.88;;;;;;;20.93;96.09;101184.91;5270187;28;20024;-67
2023/06/13 00:07:14;;;;;;;7.38;4.07;;;;;;;20.89;100.00;101190.88;5273279;28;20049;-67
2023/06/13 00:09:45;;;;;;;5.82;4.40;;;;;;;20.81;100.00;101186.34;5266001;28;20448;-67
2023/06/13 00:12:20;;;;;;;9.00;4.55;;;;;;;20.72;100.00;101181.97;5266074;28;20066;-67
2023/06/13 00:14:51;;;;;;;;;;;;;;;20.94;100.00;101183.91;5268625;28;20082;-67
2023/06/13 00:17:25;;;;;;;7.13;4.60;;;;;;;20.73;100.00;101180.94;5271858;28;19924;-67
2023/06/13 00:19:56;;;;;;;9.45;4.82;;;;;;;20.66;100.00;101182.66;5268288;28;20398;-67
2023/06/13 00:22:28;;;;;;;7.55;4.32;;;;;;;20.60;100.00;101183.38;5274716;28;20033;-66
2023/06/13 00:25:00;;;;;;;6.15;4.40;;;;;;;20.48;100.00;101177.44;5269348;28;20051;-67
2023/06/13 00:27:32;;;;;;;8.50;4.55;;;;;;;20.46;93.53;101174.03;5268285;28;20107;-67
2023/06/13 00:30:04;;;;;;;7.45;4.57;;;;;;;20.40;100.00;101178.28;5269903;28;20485;-67
2023/06/13 00:32:35;;;;;;;5.38;4.10;;;;;;;20.38;100.00;101177.63;5269146;28;20118;-67
2023/06/13 00:35:08;;;;;;;8.27;4.50;;;;;;;20.33;100.00;101178.16;5264177;28;20119;-67
2023/06/13 00:37:40;;;;;;;8.50;4.55;;;;;;;20.22;100.00;101175.81;5276603;28;20065;-67
2023/06/13 00:40:11;;;;;;;6.90;4.38;;;;;;;20.21;100.00;101181.41;5267731;28;20025;-67
2023/06/13 00:42:43;;;;;;;6.18;4.30;;;;;;;20.05;100.00;101175.00;5264243;28;20029;-67
2023/06/13 00:45:26;;;;;;;6.55;4.18;;;;;;;20.12;100.00;101178.72;5276099;28;20135;-67
2023/06/13 00:48:05;;;;;;;7.40;4.25;;;;;;;19.99;100.00;101181.09;5272548;28;20025;-67
2023/06/13 00:50:44;;;;;;;7.03;4.65;;;;;;;19.99;100.00;101181.09;5269621;28;20044;-67
2023/06/13 00:53:19;;;;;;;5.40;4.03;;;;;;;19.88;100.00;101173.31;5272678;28;20329;-66
2023/06/13 00:55:50;;;;;;;6.20;4.68;;;;;;;19.89;100.00;101180.44;5274202;28;20063;-67
2023/06/13 00:58:22;;;;;;;6.47;4.50;;;;;;;19.76;100.00;101178.25;5271114;28;20040;-67
2023/06/13 01:00:54;;;;;;;5.78;4.63;;;;;;;19.77;100.00;101172.66;5271345;28;20176;-67
2023/06/13 01:03:25;;;;;;;6.88;4.70;;;;;;;19.76;100.00;101178.25;5268763;28;20183;-67
2023/06/13 01:05:57;;;;;;;6.32;4.15;;;;;;;19.68;100.00;101172.81;5272479;28;20032;-67
2023/06/13 01:08:29;;;;;;;7.00;4.35;;;;;;;19.59;100.00;101171.94;5266094;28;20048;-67
2023/06/13 01:11:13;;;;;;;8.20;4.35;;;;;;;19.59;100.00;101161.94;5270873;28;20340;-67
2023/06/13 01:14:17;;;;;;;6.38;4.00;;;;;;;19.52;100.00;101169.06;5271634;28;20036;-67
2023/06/13 01:16:54;;;;;;;6.25;4.43;;;;;;;19.42;100.00;101162.97;5270675;28;20151;-67
2023/06/13 01:19:40;;;;;;;7.78;4.60;;;;;;;19.34;100.00;101160.25;5271025;28;20119;-67
2023/06/13 01:22:21;;;;;;;8.05;4.72;;;;;;;19.34;100.00;101162.97;5266807;28;20051;-68
2023/06/13 01:25:08;;;;;;;7.28;4.20;;;;;;;19.33;100.00;101164.81;5272858;28;20082;-67
2023/06/13 01:27:45;;;;;;;7.82;4.65;;;;;;;19.28;100.00;101167.16;5268603;28;20028;-67
2023/06/13 01:30:18;;;;;;;7.18;4.65;;;;;;;19.19;100.00;101168.16;5272460;28;20036;-67
2023/06/13 01:32:52;;;;;;;6.80;4.15;;;;;;;19.13;100.00;101168.84;5274784;28;20024;-67
2023/06/13 01:35:24;;;;;;;8.63;4.55;;;;;;;19.07;100.00;101173.03;5275175;28;20119;-67
2023/06/13 01:37:56;;;;;;;9.00;5.13;;;;;;;19.10;100.00;101163.75;5268049;28;20040;-67
2023/06/13 01:40:27;;;;;;;6.30;4.60;;;;;;;19.00;100.00;101164.75;5276061;28;20034;-67
2023/06/13 01:42:59;;;;;;;7.10;4.65;;;;;;;18.94;100.00;101165.41;5266603;28;20034;-67
2023/06/13 01:45:30;;;;;;;9.60;4.53;;;;;;;18.89;100.00;101167.75;5264350;28;20028;-67
2023/06/13 01:48:17;;;;;;;6.45;4.60;;;;;;;18.90;100.00;101166.75;5267895;28;20466;-67
2023/06/13 01:51:00;;;;;;;7.28;4.55;;;;;;;18.80;100.00;101166.88;5270815;28;20103;-67
2023/06/13 01:53:36;;;;;;;7.47;4.35;;;;;;;18.75;100.00;101157.53;5271347;28;20106;-67
2023/06/13 01:56:12;;;;;;;7.78;5.00;;;;;;;18.70;100.00;101158.03;5272137;28;20107;-67
2023/06/13 01:58:55;;;;;;;7.10;4.50;;;;;;;18.65;100.00;101165.78;5272884;28;20029;-67
2023/06/13 02:01:32;;;;;;;8.07;4.45;;;;;;;18.58;100.00;101165.59;5271640;28;20064;-67
2023/06/13 02:04:04;;;;;;;7.15;4.68;;;;;;;18.59;100.00;101153.75;5271554;28;20035;-67
2023/06/13 02:06:36;;;;;;;10.93;4.40;;;;;;;18.51;100.00;101150.19;5268935;28;20059;-67
2023/06/13 02:09:08;;;;;;;7.18;4.63;;;;;;;18.49;100.00;101154.91;5272848;28;20044;-67
2023/06/13 02:11:39;;;;;;;6.85;4.55;;;;;;;18.48;100.00;101159.44;5274016;28;20028;-67
2023/06/13 02:14:10;;;;;;;9.63;4.90;;;;;;;18.44;100.00;101157.25;5271264;28;20768;-67
2023/06/13 02:16:42;;;;;;;6.57;4.35;;;;;;;18.34;100.00;101162.75;5271130;28;20024;-67
2023/06/13 02:19:13;;;;;;;7.32;4.75;;;;;;;18.40;100.00;101162.13;5270026;28;20044;-67
2023/06/13 02:21:45;;;;;;;9.98;5.18;;;;;;;18.21;100.00;101160.47;5272047;28;20028;-67
2023/06/13 02:24:18;;;;;;;7.18;4.63;;;;;;;18.13;100.00;101155.88;5269168;28;20063;-67
2023/06/13 02:26:50;;;;;;;8.32;4.93;;;;;;;18.06;100.00;101157.50;5266078;28;20369;-67
2023/06/13 02:29:22;;;;;;;8.55;4.90;;;;;;;18.11;100.00;101162.47;5271989;28;20035;-67
2023/06/13 02:31:53;;;;;;;7.63;4.63;;;;;;;18.01;100.00;101158.00;5265807;28;20032;-67
2023/06/13 02:34:25;;;;;;;9.82;4.93;;;;;;;18.10;100.00;101160.75;5274079;28;20021;-67
2023/06/13 02:36:56;;;;;;;8.57;4.78;;;;;;;17.88;100.00;101156.72;5273306;28;20475;-67
2023/06/13 02:39:27;;;;;;;9.90;5.45;;;;;;;17.92;100.00;101161.66;5272810;28;20490;-67
2023/06/13 02:41:59;;;;;;;10.07;5.78;;;;;;;17.79;100.00;101156.63;5270122;28;20029;-67
2023/06/13 02:44:30;;;;;;;10.70;5.15;;;;;;;17.73;100.00;101159.09;5268903;28;20729;-67
2023/06/13 02:47:02;;;;;;;8.80;5.05;;;;;;;17.67;100.00;101157.88;5266957;28;20044;-67
2023/06/13 02:49:33;;;;;;;9.00;5.03;;;;;;;17.63;100.00;101159.19;5267303;28;20414;-67
2023/06/13 02:52:05;;;;;;;10.25;5.72;;;;;;;17.60;100.00;101164.91;5266286;28;20107;-67
2023/06/13 02:54:37;;;;;;;9.38;5.10;;;;;;;17.55;100.00;101159.13;5267163;28;20441;-67
2023/06/13 02:57:11;;;;;;;9.30;5.88;;;;;;;17.52;100.00;101160.28;5266836;28;20078;-67
2023/06/13 02:59:42;;;;;;;;;;;;;;;17.70;100.00;101154.88;5273302;28;20406;-67
2023/06/13 03:02:16;;;;;;;10.75;5.53;;;;;;;17.44;100.00;101163.75;5268208;28;19921;-67
2023/06/13 03:04:47;;;;;;;13.05;5.88;;;;;;;17.51;100.00;101163.13;5273777;28;20029;-67
2023/06/13 03:07:19;;;;;;;8.10;5.30;;;;;;;17.39;100.00;101165.22;5270034;28;20060;-67
2023/06/13 03:09:50;;;;;;;13.90;5.35;;;;;;;17.35;100.00;101156.56;5272013;28;20032;-67
2023/06/13 03:12:21;;;;;;;8.60;5.82;;;;;;;17.43;100.00;101163.91;5269280;28;20036;-67
2023/06/13 03:14:53;;;;;;;9.38;6.20;;;;;;;17.30;100.00;101155.38;5274754;28;20390;-67
2023/06/13 03:17:25;;;;;;;14.30;6.10;;;;;;;17.18;100.00;101163.69;5271463;28;20486;-67
2023/06/13 03:19:56;;;;;;;11.88;6.28;;;;;;;17.16;100.00;101163.00;5273953;28;20024;-67
2023/06/13 03:22:28;;;;;;;10.93;6.70;;;;;;;17.34;100.00;101167.53;5266326;28;20031;-66
2023/06/13 03:25:05;;;;;;;10.18;6.20;;;;;;;17.14;100.00;101170.34;5268147;28;20050;-66
2023/06/13 03:27:37;;;;;;;9.68;6.70;;;;;;;17.24;100.00;101154.13;5269373;28;20478;-67
2023/06/13 03:30:09;;;;;;;10.98;6.90;;;;;;;17.17;100.00;101163.84;5274080;28;20049;-67
2023/06/13 03:32:41;;;;;;;9.15;6.13;;;;;;;17.12;100.00;101155.34;5268470;28;20043;-67
2023/06/13 03:35:12;;;;;;;12.02;6.90;;;;;;;17.05;100.00;101165.91;5269789;28;20024;-67
2023/06/13 03:37:44;;;;;;;13.55;6.78;;;;;;;17.07;100.00;101157.63;5269854;28;20114;-67
2023/06/13 03:40:15;;;;;;;11.35;6.70;;;;;;;17.01;100.00;101159.97;5270961;28;20036;-67
2023/06/13 03:42:47;;;;;;;13.40;6.68;;;;;;;16.99;100.00;101155.69;5267359;28;20038;-66
2023/06/13 03:45:19;;;;;;;10.85;7.03;;;;;;;16.94;100.00;101158.88;5270804;28;20561;-67
2023/06/13 03:47:51;;;;;;;10.38;6.38;;;;;;;16.99;100.00;101161.97;5270339;28;20062;-67
2023/06/13 03:50:22;;;;;;;11.40;6.32;;;;;;;16.96;100.00;101148.78;5273120;28;20029;-67
2023/06/13 03:52:54;;;;;;;10.82;6.80;;;;;;;16.91;100.00;101152.94;5267266;28;20032;-67
2023/06/13 03:55:25;;;;;;;13.73;6.60;;;;;;;16.91;100.00;101156.47;5259952;28;20029;-68
2023/06/13 03:57:57;;;;;;;12.70;6.63;;;;;;;16.90;100.00;101162.88;5263634;28;20024;-67
2023/06/13 04:00:32;;;;;;;8.55;6.00;;;;;;;16.82;100.00;101160.94;5272386;28;20043;-68
2023/06/13 04:03:04;;;;;;;10.65;6.20;;;;;;;16.80;100.00;101156.66;5265841;28;20111;-66
2023/06/13 04:05:36;;;;;;;8.48;6.45;;;;;;;16.79;100.00;101161.19;5271473;28;20025;-67
2023/06/13 04:08:07;;;;;;;9.98;6.50;;;;;;;16.77;100.00;101165.88;5264084;28;20059;-67
2023/06/13 04:10:39;;;;;;;10.18;6.10;;;;;;;16.78;100.00;101164.88;5269203;28;20044;-67
2023/06/13 04:13:10;;;;;;;9.40;6.60;;;;;;;16.89;100.00;101161.16;5271658;28;20039;-67
2023/06/13 04:15:41;;;;;;;8.68;6.63;;;;;;;16.79;100.00;101160.34;5271642;28;20020;-67
2023/06/13 04:18:17;;;;;;;11.07;6.90;;;;;;;16.75;100.00;101161.66;5272282;28;20052;-67
2023/06/13 04:20:52;;;;;;;10.02;6.63;;;;;;;16.75;100.00;101165.19;5269580;28;20024;-67
2023/06/13 04:23:27;;;;;;;8.88;6.63;;;;;;;16.73;100.00;101161.78;5269716;28;20047;-67
2023/06/13 04:26:02;;;;;;;10.52;6.80;;;;;;;16.71;100.00;101160.25;5274707;28;20040;-67
2023/06/13 04:28:35;;;;;;;12.70;7.05;;;;;;;16.77;100.00;101160.47;5270993;28;20075;-67
2023/06/13 04:31:07;;;;;;;13.38;7.22;;;;;;;16.77;100.00;101163.19;5270552;28;20031;-67
2023/06/13 04:33:39;;;;;;;11.15;7.28;;;;;;;16.76;100.00;101166.88;5272576;28;20028;-67
2023/06/13 04:36:12;;;;;;;11.38;7.53;;;;;;;16.81;100.00;101169.97;5271235;28;20378;-67
2023/06/13 04:38:45;;;;;;;10.13;6.72;;;;;;;16.77;100.00;101173.97;5269273;28;20036;-67
2023/06/13 04:41:16;;;;;;;9.57;7.20;;;;;;;16.93;100.00;101177.88;5271116;28;20039;-67
2023/06/13 04:43:48;;;;;;;12.27;6.63;;;;;;;16.84;100.00;101182.34;5268517;28;20028;-67
2023/06/13 04:46:19;;;;;;;10.88;7.30;;;;;;;16.90;100.00;101178.19;5268303;28;20037;-67
2023/06/13 04:48:50;;;;;;;9.68;6.68;;;;;;;16.89;100.00;101173.78;5271329;28;20039;-67
2023/06/13 04:51:22;;;;;;;10.63;7.50;;;;;;;16.89;100.00;101179.19;5270005;28;20063;-67
2023/06/13 04:53:57;;;;;;;8.48;6.90;;;;;;;16.90;100.00;101183.59;5270341;28;20032;-67
2023/06/13 04:56:29;;;;;;;10.95;7.53;;;;;;;16.94;100.00;101179.59;5271235;28;20028;-67
2023/06/13 04:59:00;;;;;;;10.82;7.65;;;;;;;16.95;100.00;101183.97;5268585;28;20139;-67
2023/06/13 05:01:32;;;;;;;12.88;8.43;;;;;;;16.97;100.00;101181.97;5267643;28;20614;-67
2023/06/13 05:04:03;;;;;;;12.60;7.90;;;;;;;17.05;100.00;101190.16;5270539;28;20036;-67
2023/06/13 05:06:37;;;;;;;12.65;8.15;;;;;;;17.07;100.00;101190.88;5270057;28;20121;-67
2023/06/13 05:09:10;;;;;;;10.15;7.82;;;;;;;17.09;100.00;101194.25;5268818;28;20035;-67
2023/06/13 05:11:41;;;;;;;11.38;8.00;;;;;;;17.15;100.00;101193.63;5266270;28;20501;-67
2023/06/13 05:14:13;;;;;;;11.40;7.93;;;;;;;17.14;100.00;101191.09;5265549;28;20372;-67
2023/06/13 05:16:44;;;;;;;11.43;8.05;;;;;;;17.21;100.00;101195.72;5266252;28;20074;-67
2023/06/13 05:19:17;;;;;;;10.77;7.70;;;;;;;17.20;100.00;101190.47;5267207;28;20082;-67
2023/06/13 05:21:48;;;;;;;11.70;7.50;;;;;;;17.22;100.00;101191.16;5270919;28;20100;-67
2023/06/13 05:24:20;;;;;;;9.98;7.47;;;;;;;17.27;100.00;101191.56;5269203;28;20424;-67
2023/06/13 05:26:52;;;;;;;12.15;6.82;;;;;;;17.34;100.00;101203.44;5271776;28;20099;-67
2023/06/13 05:29:23;;;;;;;10.73;7.65;;;;;;;17.37;100.00;101200.47;5275332;28;20562;-67
2023/06/13 05:31:57;;;;;;;9.63;7.32;;;;;;;17.42;100.00;101191.91;5267798;28;20031;-67
2023/06/13 05:34:28;;;;;;;10.30;6.75;;;;;;;17.43;100.00;101191.75;5263285;28;20081;-68
2023/06/13 05:37:00;;;;;;;10.02;7.30;;;;;;;17.52;100.00;101192.66;5267542;28;20658;-67
2023/06/13 05:39:31;;;;;;;9.95;7.18;;;;;;;17.53;100.00;101199.75;5268876;28;20490;-68
2023/06/13 05:42:03;;;;;;;11.57;7.28;;;;;;;17.62;100.00;101200.66;5268187;28;20071;-67
2023/06/13 05:44:34;;;;;;;8.48;6.40;;;;;;;17.60;100.00;101200.84;5265617;28;20043;-67
2023/06/13 05:47:06;;;;;;;9.32;6.90;;;;;;;17.67;100.00;101200.22;5272007;28;20332;-67
2023/06/13 05:49:37;;;;;;;9.82;7.00;;;;;;;17.72;100.00;101198.75;5267648;28;20035;-67
2023/06/13 05:52:10;;;;;;;8.80;7.00;;;;;;;17.75;100.00;101201.13;5271052;28;20035;-67
2023/06/13 05:54:43;;;;;;;10.82;6.72;;;;;;;17.78;100.00;101205.38;5265678;28;20113;-67
2023/06/13 05:57:15;;;;;;;7.80;6.80;;;;;;;17.79;100.00;101207.06;5270009;28;20044;-67
2023/06/13 05:59:46;;;;;;;15.63;7.10;;;;;;;17.92;100.00;101199.44;5270781;28;20475;-67
2023/06/13 06:02:18;;;;;;;8.18;6.82;;;;;;;17.94;100.00;101199.28;5265584;28;20086;-67
2023/06/13 06:04:49;;;;;;;10.43;6.75;;;;;;;17.99;100.00;101205.91;5265406;28;20111;-67
2023/06/13 06:07:20;;;;;;;10.48;6.88;;;;;;;18.06;100.00;101210.69;5270732;28;20460;-67
2023/06/13 06:09:52;;;;;;;8.65;6.40;;;;;;;18.03;100.00;101215.41;5265484;28;20119;-67
2023/06/13 06:12:23;;;;;;;11.00;6.88;;;;;;;18.18;100.00;101214.84;5269581;28;20034;-68
2023/06/13 06:14:54;;;;;;;10.55;6.57;;;;;;;18.32;100.00;101216.09;5262827;28;20674;-66
2023/06/13 06:17:26;;;;;;;8.85;5.93;;;;;;;18.24;100.00;101216.91;5260090;28;20063;-66
2023/06/13 06:19:58;;;;;;;8.57;6.18;;;;;;;18.40;100.00;101216.16;5269802;28;20687;-66
2023/06/13 06:22:29;;;;;;;11.30;6.43;;;;;;;18.45;100.00;101215.66;5267420;28;20032;-66
2023/06/13 06:25:00;;;;;;;11.07;6.50;;;;;;;18.54;100.00;101210.16;5267526;28;20087;-67
2023/06/13 06:27:32;;;;;;;10.55;6.60;;;;;;;18.74;100.00;101215.31;5267477;28;20035;-67
2023/06/13 06:30:04;;;;;;;8.82;6.30;;;;;;;18.71;100.00;101211.06;5270710;28;20042;-67
2023/06/13 06:32:36;;;;;;;10.98;6.38;;;;;;;18.83;100.00;101216.22;5274814;28;20102;-67
2023/06/13 06:35:07;;;;;;;11.15;6.18;;;;;;;18.87;100.00;101215.75;5275402;28;20421;-67
2023/06/13 06:37:39;;;;;;;15.55;6.65;;;;;;;19.03;100.00;101217.66;5270041;28;20082;-67
2023/06/13 06:40:11;;;;;;;16.15;7.68;;;;;;;19.17;100.00;101213.47;5277905;28;20024;-67
2023/06/13 06:42:42;;;;;;;14.95;7.07;;;;;;;19.28;100.00;101209.63;5275642;28;20085;-68
2023/06/13 06:45:14;;;;;;;11.02;6.25;;;;;;;19.36;100.00;101207.75;5271807;28;20041;-67
2023/06/13 06:47:45;;;;;;;14.68;7.03;;;;;;;19.46;100.00;101210.31;5270062;28;20023;-66
2023/06/13 06:50:17;;;;;;;11.48;7.15;;;;;;;19.62;100.00;101205.94;5274101;28;20029;-67
2023/06/13 06:52:48;;;;;;;22.05;7.70;;;;;;;19.80;100.00;101205.81;5273285;28;20450;-67
2023/06/13 06:55:19;;;;;;;10.23;6.60;;;;;;;19.85;100.00;101206.16;5278007;28;20088;-67
2023/06/13 06:57:53;;;;;;;9.23;6.07;;;;;;;19.96;100.00;101208.50;5269092;28;20542;-66
2023/06/13 07:00:24;;;;;;;10.18;6.07;;;;;;;20.07;100.00;101204.63;5269296;28;20036;-67
2023/06/13 07:02:56;;;;;;;8.95;5.90;;;;;;;20.23;100.00;101209.16;5268088;28;20639;-66
2023/06/13 07:05:27;;;;;;;7.68;5.65;;;;;;;20.23;100.00;101210.03;5268861;28;20376;-65
2023/06/13 07:07:59;;;;;;;8.07;5.90;;;;;;;20.34;100.00;101206.09;5267963;28;20102;-65
2023/06/13 07:10:30;;;;;;;10.05;6.00;;;;;;;20.42;100.00;101206.06;5282972;28;20032;-66
2023/06/13 07:13:02;;;;;;;9.63;6.10;;;;;;;20.42;100.00;101214.19;5275261;28;20028;-66
2023/06/13 07:15:33;;;;;;;9.10;5.97;;;;;;;20.48;100.00;101218.94;5271631;28;20757;-66
2023/06/13 07:18:05;;;;;;;9.70;6.10;;;;;;;20.65;100.00;101217.06;5267288;28;20442;-66
2023/06/13 07:20:36;;;;;;;8.32;5.35;;;;;;;20.62;100.00;101224.72;5267998;28;20373;-66
2023/06/13 07:23:07;;;;;;;8.93;5.53;;;;;;;20.76;100.00;101223.97;5270872;28;20496;-66
2023/06/13 07:25:42;;;;;;;9.77;6.25;;;;;;;20.98;100.00;101218.78;5269627;28;20107;-66
2023/06/13 07:28:13;;;;;;;9.43;5.70;;;;;;;20.95;100.00;101214.56;5267789;28;20077;-66
2023/06/13 07:30:45;;;;;;;11.23;6.30;;;;;;;21.08;100.00;101214.84;5281164;28;20032;-66
2023/06/13 07:33:16;;;;;;;7.80;5.65;;;;;;;21.08;100.00;101222.16;5276978;28;20111;-66
2023/06/13 07:35:48;;;;;;;9.73;5.85;;;;;;;21.12;100.00;101210.75;5269029;28;20049;-66
2023/06/13 07:38:20;;;;;;;11.00;6.28;;;;;;;21.17;100.00;101214.78;5276288;28;20051;-67
2023/06/13 07:40:51;;;;;;;10.02;6.38;;;;;;;21.29;100.00;101211.50;5267127;28;20032;-66
2023/06/13 07:43:22;;;;;;;11.07;6.20;;;;;;;21.34;100.00;101210.97;5272358;28;20376;-66
2023/06/13 07:45:54;;;;;;;8.95;5.78;;;;;;;21.48;100.00;101212.13;5266465;28;22086;-66
2023/06/13 07:48:25;;;;;;;8.57;5.55;;;;;;;21.54;100.00;101206.78;5264710;28;20028;-66
2023/06/13 07:50:57;;;;;;;10.10;6.13;;;;;;;21.61;100.00;101215.06;5270486;28;20047;-66
2023/06/13 07:53:28;;;;;;;9.77;6.53;;;;;;;21.68;100.00;101215.19;5279418;28;20029;-66
2023/06/13 07:55:59;;;;;;;9.63;6.15;;;;;;;21.80;100.00;101210.16;5268951;28;20043;-66
2023/06/13 07:58:31;;;;;;;8.20;5.45;;;;;;;21.87;100.00;101208.41;5268066;28;20024;-66
2023/06/13 08:01:03;;;;;;;10.50;5.53;;;;;;;22.03;100.00;101210.97;5274739;28;20031;-67
2023/06/13 08:03:34;;;;;;;8.88;5.47;;;;;;;22.03;100.00;101219.09;5277087;28;20039;-66
2023/06/13 08:06:05;;;;;;;8.38;5.13;;;;;;;22.10;100.00;101213.81;5273307;28;20030;-67
2023/06/13 08:08:37;;;;;;;6.80;5.15;;;;;;;22.28;100.00;101216.19;5272461;28;20051;-67
2023/06/13 08:11:09;;;;;;;9.30;5.47;;;;;;;22.31;100.00;101211.25;5283615;28;20375;-67
2023/06/13 08:13:40;;;;;;;8.18;5.25;;;;;;;22.42;100.00;101212.66;5276006;28;20519;-66
2023/06/13 08:16:12;;;;;;;8.95;5.13;;;;;;;22.45;100.00;101215.00;5267373;28;20028;-67
2023/06/13 08:18:43;;;;;;;8.95;5.40;;;;;;;22.54;100.00;101213.03;5279139;28;20032;-67
2023/06/13 08:21:14;;;;;;;9.13;5.70;;;;;;;22.58;100.00;101208.06;5266675;28;20479;-66
2023/06/13 08:23:46;;;;;;;9.30;5.53;;;;;;;22.65;100.00;101211.75;5271902;28;20047;-66
2023/06/13 08:26:17;;;;;;;8.75;5.30;;;;;;;22.73;100.00;101203.47;5264933;28;20124;-66
2023/06/13 08:28:49;;;;;;;12.15;5.63;;;;;;;22.83;100.00;101217.63;5264985;28;20116;-66
2023/06/13 08:31:23;;;;;;;9.27;5.25;;;;;;;23.01;100.00;101206.34;5264939;28;20033;-66
2023/06/13 08:33:55;;;;;;;8.73;5.65;;;;;;;23.02;100.00;101213.47;5268416;28;20461;-67
2023/06/13 08:36:27;;;;;;;8.43;5.75;;;;;;;23.07;100.00;101212.94;5266024;28;20158;-66
2023/06/13 08:38:59;;;;;;;9.70;5.82;;;;;;;23.28;100.00;101206.69;5267153;28;20024;-66
2023/06/13 08:41:31;;;;;;;7.63;5.00;;;;;;;23.29;100.00;101198.31;5270948;28;20031;-67
2023/06/13 08:44:03;;;;;;;9.02;5.57;;;;;;;23.36;100.00;101208.44;5264004;28;20036;-66
2023/06/13 08:46:36;;;;;;;8.40;5.25;;;;;;;23.60;97.17;101205.31;5269777;28;20032;-66
2023/06/13 08:49:08;;;;;;;9.85;5.78;;;;;;;23.68;98.92;101198.91;5272888;28;20067;-66
2023/06/13 08:51:43;;;;;;;11.25;5.70;;;;;;;23.78;96.04;101204.00;5274946;28;20021;-66
2023/06/13 08:54:15;;;;;;;8.02;4.90;;;;;;;23.75;91.84;101198.97;5287200;28;20032;-66
2023/06/13 08:56:50;;;;;;;8.23;5.22;;;;;;;23.72;97.42;101185.72;5273639;28;20031;-66
2023/06/13 08:59:26;;;;;;;9.50;4.97;;;;;;;23.95;96.01;101191.84;5281122;28;20524;-66
2023/06/13 09:01:58;;;;;;;7.80;5.03;;;;;;;23.97;93.66;101178.88;5280294;28;20059;-66
2023/06/13 09:04:32;;;;;;;10.70;4.93;;;;;;;24.05;91.29;101180.59;5278462;28;20032;-66
2023/06/13 09:07:04;;;;;;;7.32;5.03;;;;;;;24.17;91.09;101181.72;5275278;28;20045;-66
2023/06/13 09:09:37;;;;;;;7.60;5.22;;;;;;;24.17;90.85;101186.34;5278207;28;20437;-66
2023/06/13 09:12:16;;;;;;;9.68;5.55;;;;;;;24.23;88.88;101182.81;5275788;28;20029;-66
2023/06/13 09:14:47;;;;;;;10.25;5.13;;;;;;;24.22;92.94;101181.13;5280616;28;20955;-66
2023/06/13 09:17:19;;;;;;;10.55;5.32;;;;;;;24.41;92.44;101180.44;5279775;28;20024;-66
2023/06/13 09:19:50;;;;;;;10.38;5.60;;;;;;;24.42;91.60;101190.28;5271120;28;20025;-66
2023/06/13 09:22:23;;;;;;;9.27;4.85;;;;;;;24.56;87.94;101185.78;5282842;28;20041;-66
2023/06/13 09:24:55;;;;;;;8.95;5.43;;;;;;;24.50;92.31;101189.28;5276029;28;20067;-66
2023/06/13 09:27:27;;;;;;;10.02;5.22;;;;;;;24.66;89.82;101190.84;5284292;28;20058;-66
2023/06/13 09:30:00;;;;;;;12.52;6.10;;;;;;;24.69;83.78;101184.16;5278279;28;20028;-66
2023/06/13 09:32:32;;;;;;;12.57;5.30;;;;;;;24.89;86.75;101176.06;5275306;28;20043;-66
2023/06/13 09:35:03;;;;;;;8.63;5.00;;;;;;;24.88;91.14;101168.94;5269766;28;20426;-66
2023/06/13 09:37:35;;;;;;;7.82;5.00;;;;;;;24.79;90.66;101179.16;5279538;28;20032;-66
2023/06/13 09:40:09;;;;;;;8.93;5.25;;;;;;;24.91;87.73;101172.09;5264747;28;20024;-66
2023/06/13 09:42:43;;;;;;;10.60;5.13;;;;;;;25.04;89.41;101176.75;5266910;28;20027;-66
2023/06/13 09:45:15;;;;;;;8.40;4.95;;;;;;;25.11;84.71;101169.41;5267563;28;20029;-66
2023/06/13 09:47:46;;;;;;;8.60;4.90;;;;;;;25.34;86.21;101170.97;5272694;28;20032;-66
2023/06/13 09:50:18;;;;;;;9.88;4.93;;;;;;;25.23;85.06;101181.44;5270543;28;20043;-66
2023/06/13 09:52:50;;;;;;;9.48;4.75;;;;;;;25.42;85.08;101168.03;5274846;28;20091;-67
2023/06/13 09:55:21;;;;;;;7.93;5.07;;;;;;;25.43;81.81;101167.84;5273627;28;20051;-66
2023/06/13 09:57:53;;;;;;;7.65;4.90;;;;;;;25.49;81.42;101166.16;5269744;28;20033;-66
2023/06/13 10:00:24;;;;;;;7.28;4.47;;;;;;;25.59;80.00;101161.13;5269586;28;20024;-66
2023/06/13 10:02:56;;;;;;;9.07;4.50;;;;;;;25.73;84.23;101174.78;5268279;28;20029;-66
2023/06/13 10:05:28;;;;;;;10.90;4.72;;;;;;;25.75;80.15;101153.56;5265047;28;20037;-67
2023/06/13 10:08:00;;;;;;;8.07;4.72;;;;;;;25.82;78.81;101165.34;5268065;28;20055;-66
2023/06/13 10:10:31;;;;;;;7.35;4.65;;;;;;;25.80;79.23;101157.34;5261515;28;20513;-66
2023/06/13 10:13:09;;;;;;;8.82;4.65;;;;;;;25.84;79.95;101168.69;5263331;28;20029;-66
2023/06/13 10:15:50;;;;;;;7.20;4.35;;;;;;;25.94;76.33;101158.19;5260812;28;20020;-66
2023/06/13 10:18:28;;;;;;;6.30;4.25;;;;;;;26.14;76.34;101162.84;5266959;28;20025;-66
2023/06/13 10:21:00;;;;;;;8.05;4.82;;;;;;;26.10;78.21;101164.28;5268705;28;20055;-66
2023/06/13 10:23:35;;;;;;;6.38;4.53;;;;;;;26.05;78.82;101161.38;5268526;28;20146;-65
2023/06/13 10:26:15;;;;;;;5.90;4.50;;;;;;;26.29;72.58;101168.91;5262242;28;20114;-66
2023/06/13 10:29:08;;;;;;;6.60;4.28;;;;;;;26.44;77.42;101165.91;5273739;28;20028;-66
2023/06/13 10:32:04;;;;;;;7.87;4.70;;;;;;;26.52;75.73;101157.47;5270309;28;20482;-66
2023/06/13 10:35:13;;;;;;;7.93;4.43;;;;;;;26.56;74.40;101157.84;5269396;28;20032;-66
2023/06/13 10:37:48;;;;;;;7.20;4.35;;;;;;;26.63;77.03;101171.56;5269825;28;20028;-66
2023/06/13 10:40:40;;;;;;;11.77;5.03;;;;;;;26.64;70.37;101163.16;5272134;28;20036;-65
2023/06/13 10:43:19;;;;;;;6.45;3.80;;;;;;;26.63;77.04;101155.97;5269305;28;20028;-66
2023/06/13 10:45:53;;;;;;;5.90;4.00;;;;;;;26.76;75.79;101163.31;5270477;28;20020;-66
2023/06/13 10:48:44;;;;;;;;;;;;;;;26.90;78.35;101159.44;5268841;28;20043;-66
2023/06/13 10:51:23;;;;;;;6.78;4.40;;;;;;;26.79;76.65;101157.41;5263722;28;19912;-66
2023/06/13 10:54:11;;;;;;;9.38;4.25;;;;;;;26.95;74.37;101158.81;5268633;28;20167;-66
2023/06/13 10:56:43;;;;;;;6.05;4.50;;;;;;;26.88;72.12;101152.50;5271773;28;20032;-66
2023/06/13 10:59:16;;;;;;;5.60;3.97;;;;;;;26.93;71.00;101159.00;5275978;28;20111;-66
2023/06/13 11:01:50;;;;;;;6.22;4.22;;;;;;;27.08;68.91;101156.00;5265029;28;20059;-66
2023/06/13 11:04:23;;;;;;;6.78;4.10;;;;;;;27.04;63.49;101146.53;5267326;28;20028;-66
2023/06/13 11:07:25;;;;;;;6.50;4.17;;;;;;;27.06;69.97;101144.41;5271538;28;20095;-66
2023/06/13 11:10:16;;;;;;;6.25;4.20;;;;;;;27.19;68.85;101143.47;5273101;28;20059;-66
2023/06/13 11:12:47;;;;;;;7.90;4.45;;;;;;;27.13;67.18;101147.09;5279084;28;20033;-66
2023/06/13 11:15:24;;;;;;;8.52;4.20;;;;;;;27.17;63.39;101151.94;5269649;28;20588;-65
2023/06/13 11:18:13;;;;;;;7.72;4.20;;;;;;;27.29;67.33;101143.00;5265218;28;20035;-66
2023/06/13 11:20:53;;;;;;;5.80;4.47;;;;;;;27.12;65.63;101142.69;5267870;28;20127;-65
2023/06/13 11:23:38;;;;;;;6.22;4.10;;;;;;;27.31;65.30;101146.41;5268533;28;20146;-65
2023/06/13 11:26:11;;;;;;;5.13;4.10;;;;;;;27.19;65.55;101147.06;5278221;28;20370;-65
2023/06/13 11:28:42;;;;;;;7.32;4.05;;;;;;;27.01;68.85;101137.91;5275653;28;20030;-65
2023/06/13 11:31:15;;;;;;;9.07;4.00;;;;;;;27.23;67.72;101143.88;5278068;28;21017;-65
2023/06/13 11:33:48;;;;;;;6.05;4.35;;;;;;;27.28;64.10;101142.19;5260877;28;20036;-65
2023/06/13 11:36:24;;;;;;;7.57;3.97;;;;;;;27.24;63.12;101137.34;5268043;28;20032;-65
2023/06/13 11:39:04;;;;;;;8.00;3.90;;;;;;;27.40;70.15;101144.22;5276694;28;20083;-65
2023/06/13 11:41:36;;;;;;;6.82;4.38;;;;;;;27.44;59.68;101142.72;5269272;28;20032;-65
2023/06/13 11:44:08;;;;;;;7.68;4.30;;;;;;;27.51;63.46;101141.59;5275068;28;20039;-65
2023/06/13 11:46:43;;;;;;;7.95;4.50;;;;;;;27.42;60.06;101137.44;5274749;28;20672;-65